Time;durP1;ratioP1;P1;durP2;ratioP2;P2;SDS_P1;SDS_P2;PMS_P1;PMS_P2;Temp;Humidity;BMP_temperature;BMP_pressure;BME280_temperature;BME280_humidity;BME280_pressure;Samples;Min_cycle;Max_cycle;Signal;HPM_P1;HPM_P2
2022/04/23 00:00:19;;;;;;;26.95;15.65;;;;;;;6.63;72.52;92443.34;5074199;28;20396;-49
2022/04/23 00:02:46;;;;;;;29.08;16.05;;;;;;;6.34;73.04;92449.47;5073315;28;20105;-47
2022/04/23 00:05:13;;;;;;;26.58;15.82;;;;;;;6.43;72.96;92445.38;5073796;28;20052;-46
2022/04/23 00:07:40;;;;;;;26.27;15.73;;;;;;;6.49;72.81;92451.88;5073296;28;20052;-48
2022/04/23 00:10:08;;;;;;;30.67;16.60;;;;;;;6.50;73.05;92447.94;5072616;28;20044;-46
2022/04/23 00:12:35;;;;;;;28.13;15.77;;;;;;;6.51;73.24;92435.84;5069716;28;20449;-47
2022/04/23 00:15:02;;;;;;;29.80;15.93;;;;;;;6.58;73.93;92436.44;5057124;28;20051;-49
2022/04/23 00:17:29;;;;;;;26.33;14.68;;;;;;;6.68;74.99;92436.59;5053372;28;20436;-45
2022/04/23 00:19:56;;;;;;;29.33;15.20;;;;;;;6.82;74.69;92428.06;5053158;28;20055;-45
2022/04/23 00:22:23;;;;;;;25.77;15.18;;;;;;;7.23;74.60;92437.56;5053624;28;20041;-45
2022/04/23 00:24:50;;;;;;;26.02;14.85;;;;;;;7.24;73.56;92427.41;5052962;28;20161;-50
2022/04/23 00:27:17;;;;;;;27.88;15.00;;;;;;;7.34;73.85;92420.88;5053494;28;20063;-45
2022/04/23 00:29:43;;;;;;;24.08;14.15;;;;;;;7.67;73.19;92420.78;5051590;28;20493;-53
2022/04/23 00:32:10;;;;;;;26.60;15.13;;;;;;;7.87;71.95;92424.09;5073442;28;20401;-49
2022/04/23 00:34:37;;;;;;;26.58;14.63;;;;;;;7.84;72.40;92422.22;5072714;28;20041;-47
2022/04/23 00:37:05;;;;;;;27.42;15.57;;;;;;;7.69;71.86;92427.34;5073233;28;20048;-47
2022/04/23 00:39:32;;;;;;;25.40;14.43;;;;;;;7.71;72.11;92424.19;5071439;28;20150;-49
2022/04/23 00:42:00;;;;;;;25.00;14.82;;;;;;;7.67;70.91;92426.25;5072928;28;20048;-47
2022/04/23 00:44:27;;;;;;;27.90;15.50;;;;;;;7.27;72.23;92423.81;5072415;28;20067;-52
2022/04/23 00:46:54;;;;;;;26.35;15.05;;;;;;;7.19;73.20;92429.47;5071745;28;20057;-50
2022/04/23 00:49:20;;;;;;;25.45;15.20;;;;;;;7.48;72.91;92423.22;5073063;28;20041;-45
2022/04/23 00:51:49;;;;;;;27.13;15.15;;;;;;;7.50;72.62;92414.59;5071367;28;20066;-45
2022/04/23 00:54:17;;;;;;;26.83;15.80;;;;;;;7.62;72.19;92421.31;5072877;28;20053;-48
2022/04/23 00:56:44;;;;;;;24.40;14.57;;;;;;;7.54;72.27;92418.00;5072551;28;20049;-47
2022/04/23 00:59:12;;;;;;;26.40;15.00;;;;;;;7.56;72.74;92413.63;5072864;28;20045;-45
2022/04/23 01:01:42;;;;;;;26.50;15.25;;;;;;;7.57;72.36;92409.72;5071318;28;20045;-46
2022/04/23 01:04:12;;;;;;;24.80;15.38;;;;;;;7.59;72.72;92415.50;5072985;28;20047;-47
2022/04/23 01:06:43;;;;;;;26.48;15.60;;;;;;;7.64;72.32;92410.72;5071962;28;20105;-52
2022/04/23 01:09:10;;;;;;;27.10;15.30;;;;;;;7.72;72.34;92407.34;5052819;28;20060;-47
2022/04/23 01:11:38;;;;;;;69.25;35.78;;;;;;;7.71;71.64;92407.78;5050655;28;20508;-50
2022/04/23 01:14:05;;;;;;;30.77;17.50;;;;;;;7.68;72.45;92405.91;5052396;28;20045;-49
2022/04/23 01:16:33;;;;;;;26.58;15.65;;;;;;;7.72;72.14;92414.78;5052118;28;20052;-47
2022/04/23 01:19:00;;;;;;;27.88;15.98;;;;;;;7.76;72.22;92410.72;5052186;28;20098;-46
2022/04/23 01:21:27;;;;;;;28.77;16.37;;;;;;;7.75;71.70;92414.69;5050731;28;20041;-47
2022/04/23 01:23:56;;;;;;;26.70;15.65;;;;;;;7.75;72.29;92411.94;5052270;28;20071;-49
2022/04/23 01:26:28;;;;;;;27.35;16.17;;;;;;;7.72;72.72;92403.84;5052242;28;20068;-54
2022/04/23 01:28:59;;;;;;;28.65;16.42;;;;;;;7.64;72.59;92411.47;5050094;28;20404;-49
2022/04/23 01:31:26;;;;;;;32.75;17.63;;;;;;;7.69;73.05;92415.66;5052223;28;20053;-50
2022/04/23 01:33:53;;;;;;;27.37;16.07;;;;;;;7.69;72.90;92415.66;5051116;28;20401;-46
2022/04/23 01:36:20;;;;;;;30.02;16.73;;;;;;;7.68;73.27;92411.38;5052301;28;20098;-45
2022/04/23 01:38:47;;;;;;;28.27;16.75;;;;;;;7.67;73.10;92418.81;5051555;28;20114;-45
2022/04/23 01:41:14;;;;;;;28.20;16.58;;;;;;;7.67;73.45;92413.34;5052079;28;20075;-49
2022/04/23 01:43:41;;;;;;;30.52;17.05;;;;;;;7.66;72.99;92416.50;5050335;28;20524;-45
2022/04/23 01:46:08;;;;;;;26.80;16.27;;;;;;;7.65;73.36;92423.19;5061728;28;20053;-50
2022/04/23 01:48:35;;;;;;;28.20;16.67;;;;;;;7.60;73.60;92410.81;5065826;28;20403;-50
2022/04/23 01:51:02;;;;;;;31.73;17.17;;;;;;;7.62;73.80;92408.41;5072107;28;20053;-48
2022/04/23 01:53:29;;;;;;;28.20;17.10;;;;;;;7.57;73.54;92417.16;5071520;28;20396;-47
2022/04/23 01:55:56;;;;;;;29.67;17.70;;;;;;;7.64;74.06;92418.91;5071677;28;20052;-50
2022/04/23 01:58:23;;;;;;;30.93;17.63;;;;;;;7.67;73.62;92413.34;5071653;28;20117;-50
2022/04/23 02:00:50;;;;;;;31.52;17.85;;;;;;;7.64;73.99;92424.38;5053341;28;20397;-48
2022/04/23 02:03:18;;;;;;;30.65;18.13;;;;;;;7.45;74.74;92426.06;5071614;28;20049;-45
2022/04/23 02:05:45;;;;;;;32.67;18.13;;;;;;;7.52;74.94;92415.69;5071352;28;20105;-46
2022/04/23 02:08:15;;;;;;;34.50;18.58;;;;;;;7.53;75.37;92417.25;5071500;28;20161;-46
2022/04/23 02:10:42;;;;;;;32.27;18.43;;;;;;;7.59;75.08;92418.25;5071213;28;20044;-48
2022/04/23 02:13:10;;;;;;;31.63;18.20;;;;;;;7.56;74.92;92415.59;5071085;28;20050;-44
2022/04/23 02:15:37;;;;;;;32.55;18.58;;;;;;;7.51;75.71;92427.84;5070863;28;20396;-44
2022/04/23 02:18:05;;;;;;;32.53;18.90;;;;;;;7.53;75.18;92419.97;5069949;28;20040;-47
2022/04/23 02:20:32;;;;;;;32.58;18.70;;;;;;;7.47;75.67;92420.94;5070367;28;20036;-48
2022/04/23 02:22:59;;;;;;;34.13;18.83;;;;;;;7.49;75.54;92422.03;5071299;28;20417;-47
2022/04/23 02:25:25;;;;;;;33.42;19.05;;;;;;;7.48;74.89;92417.00;5069727;28;20058;-45
2022/04/23 02:27:52;;;;;;;33.40;18.77;;;;;;;7.44;75.76;92419.06;5070113;28;20817;-50
2022/04/23 02:30:21;;;;;;;31.55;18.13;;;;;;;7.41;75.75;92423.44;5069735;28;20037;-47
2022/04/23 02:32:48;;;;;;;32.17;18.95;;;;;;;7.36;75.70;92422.00;5070453;28;20046;-47
2022/04/23 02:35:17;;;;;;;31.93;18.57;;;;;;;7.31;76.08;92421.75;5069648;28;20044;-45
2022/04/23 02:37:45;;;;;;;32.55;17.80;;;;;;;7.34;75.64;92418.16;5069288;28;20054;-45
2022/04/23 02:40:14;;;;;;;32.55;18.65;;;;;;;7.29;75.89;92414.00;5069726;28;20058;-44
2022/04/23 02:42:41;;;;;;;31.42;18.27;;;;;;;7.27;76.34;92413.66;5070556;28;20036;-45
2022/04/23 02:45:10;;;;;;;31.77;18.38;;;;;;;7.29;76.03;92411.28;5066618;28;20051;-49
2022/04/23 02:47:44;;;;;;;32.17;18.37;;;;;;;7.26;76.05;92403.94;5059198;28;20037;-45
2022/04/23 02:50:12;;;;;;;33.42;19.75;;;;;;;7.13;77.75;92403.16;5070442;28;20048;-46
2022/04/23 02:52:43;;;;;;;33.40;18.75;;;;;;;7.22;76.79;92406.00;5070527;28;20044;-48
2022/04/23 02:55:11;;;;;;;34.00;19.73;;;;;;;7.14;77.79;92401.94;5070543;28;20053;-50
2022/04/23 02:57:42;;;;;;;31.88;18.25;;;;;;;7.19;76.91;92404.16;5070171;28;20067;-45
2022/04/23 03:00:10;;;;;;;33.07;18.37;;;;;;;7.12;77.31;92405.09;5069087;28;20041;-46
2022/04/23 03:02:40;;;;;;;35.83;18.77;;;;;;;7.15;77.22;92400.75;5070269;28;20416;-46
2022/04/23 03:05:11;;;;;;;33.15;18.55;;;;;;;7.11;77.46;92402.81;5070559;28;20127;-45
2022/04/23 03:07:39;;;;;;;32.78;18.42;;;;;;;7.15;77.18;92398.03;5070062;28;20032;-50
2022/04/23 03:10:08;;;;;;;32.20;18.67;;;;;;;7.09;77.50;92408.69;5070410;28;20434;-52
2022/04/23 03:12:38;;;;;;;32.13;19.07;;;;;;;7.05;77.54;92407.25;5069964;28;20053;-45
2022/04/23 03:15:06;;;;;;;35.28;19.35;;;;;;;7.02;77.74;92402.66;5070097;28;20044;-47
2022/04/23 03:17:33;;;;;;;33.13;19.42;;;;;;;7.01;77.70;92401.88;5070170;28;20059;-50
2022/04/23 03:20:01;;;;;;;33.75;18.70;;;;;;;6.99;77.78;92402.31;5069904;28;20048;-46
2022/04/23 03:22:28;;;;;;;34.25;19.05;;;;;;;6.96;77.91;92396.94;5069791;28;20036;-45
2022/04/23 03:24:54;;;;;;;36.60;19.03;;;;;;;6.89;78.38;92392.44;5068367;28;20052;-50
2022/04/23 03:27:22;;;;;;;35.05;19.38;;;;;;;6.73;79.25;92398.69;5069075;28;20041;-46
2022/04/23 03:29:48;;;;;;;37.10;21.15;;;;;;;6.76;79.39;92395.13;5069546;28;20071;-50
2022/04/23 03:32:15;;;;;;;36.35;19.65;;;;;;;6.68;79.59;92396.50;5070144;28;20036;-48
2022/04/23 03:34:42;;;;;;;34.97;20.20;;;;;;;6.62;79.54;92400.94;5069621;28;20046;-45
2022/04/23 03:37:09;;;;;;;39.73;19.97;;;;;;;6.56;80.37;92397.16;5070168;28;20062;-53
2022/04/23 03:39:36;;;;;;;39.35;20.55;;;;;;;6.59;80.31;92401.78;5069603;28;20045;-48
2022/04/23 03:42:03;;;;;;;37.97;21.33;;;;;;;6.55;80.94;92398.38;5070065;28;20055;-49
2022/04/23 03:44:31;;;;;;;36.63;20.52;;;;;;;6.55;81.38;92404.59;5065713;28;20109;-48
2022/04/23 03:46:59;;;;;;;36.90;20.80;;;;;;;6.57;80.65;92401.44;5054568;28;20075;-47
2022/04/23 03:49:26;;;;;;;46.57;21.63;;;;;;;6.51;81.37;92394.97;5049816;28;20079;-53
2022/04/23 03:51:53;;;;;;;39.05;21.30;;;;;;;6.40;82.11;92403.41;5049078;28;20294;-48
2022/04/23 03:54:20;;;;;;;42.22;22.08;;;;;;;6.49;81.95;92400.09;5048674;28;20053;-46
2022/04/23 03:56:47;;;;;;;42.50;21.92;;;;;;;6.58;81.99;92401.03;5049330;28;20052;-51
2022/04/23 03:59:15;;;;;;;41.03;22.35;;;;;;;6.55;81.70;92401.84;5048684;28;20053;-48
2022/04/23 04:01:41;;;;;;;44.93;24.23;;;;;;;6.47;82.82;92397.78;5049263;28;20041;-45
2022/04/23 04:04:09;;;;;;;40.70;22.27;;;;;;;6.40;83.83;92390.56;5049743;28;20118;-53
2022/04/23 04:06:35;;;;;;;44.35;24.35;;;;;;;6.53;83.36;92398.03;5049532;28;20078;-48
2022/04/23 04:09:02;;;;;;;43.63;22.48;;;;;;;6.68;82.95;92391.03;5067985;28;20049;-45
2022/04/23 04:12:01;;;;;;;42.47;22.63;;;;;;;6.71;82.38;92382.00;5069511;28;20052;-49
2022/04/23 04:14:16;;;;;;;43.17;23.27;;;;;;;6.84;81.71;92384.03;5069746;28;20158;-44
2022/04/23 04:16:43;;;;;;;40.20;22.10;;;;;;;6.78;82.23;92381.03;5067518;28;20055;-46
2022/04/23 04:19:09;;;;;;;41.60;22.63;;;;;;;6.78;82.39;92378.31;5069224;28;20044;-46
2022/04/23 04:21:36;;;;;;;42.88;21.67;;;;;;;6.71;83.09;92379.28;5068897;28;20067;-51
2022/04/23 04:24:03;;;;;;;43.28;22.90;;;;;;;6.67;83.26;92381.31;5069548;28;20040;-47
2022/04/23 04:26:31;;;;;;;41.93;22.00;;;;;;;6.84;83.31;92373.13;5067824;28;20045;-46
2022/04/23 04:28:57;;;;;;;42.55;22.17;;;;;;;6.93;82.38;92376.75;5069708;28;20051;-51
2022/04/23 04:34:09;;;;;;;39.35;20.77;;;;;;;7.06;81.97;92379.53;5067444;28;20509;-47
2022/04/23 04:36:36;;;;;;;38.70;21.48;;;;;;;7.06;82.09;92379.53;5072398;28;20394;-50
2022/04/23 04:39:03;;;;;;;40.63;21.23;;;;;;;7.13;81.42;92379.34;5073125;28;20047;-47
2022/04/23 04:41:31;;;;;;;43.95;21.10;;;;;;;7.23;81.19;92374.03;5073031;28;20486;-46
2022/04/23 04:43:58;;;;;;;36.30;20.52;;;;;;;7.12;81.94;92375.09;5072605;28;20052;-52
2022/04/23 04:46:24;;;;;;;38.92;21.13;;;;;;;7.19;81.76;92377.63;5073302;28;20044;-46
2022/04/23 04:48:52;;;;;;;37.53;20.52;;;;;;;7.32;80.98;92380.38;5072655;28;20041;-45
2022/04/23 04:51:19;;;;;;;39.70;21.43;;;;;;;7.27;80.90;92374.72;5073298;28;20052;-45
2022/04/23 04:53:45;;;;;;;40.75;21.40;;;;;;;7.06;81.79;92376.03;5072197;28;20045;-52
2022/04/23 04:56:12;;;;;;;39.58;21.67;;;;;;;6.99;82.50;92374.28;5072948;28;20063;-49
2022/04/23 04:58:43;;;;;;;40.30;21.25;;;;;;;7.13;82.17;92382.06;5072443;28;20040;-49
2022/04/23 05:01:10;;;;;;;40.78;21.65;;;;;;;7.27;81.69;92386.38;5069461;28;20269;-49
2022/04/23 05:03:39;;;;;;;42.80;21.67;;;;;;;7.26;81.77;92390.28;5065413;28;20097;-46
2022/04/23 05:06:07;;;;;;;38.83;21.48;;;;;;;7.51;80.96;92386.88;5052668;28;20049;-47
2022/04/23 05:08:34;;;;;;;40.08;21.70;;;;;;;7.52;80.65;92390.38;5066875;28;20055;-46
2022/04/23 05:11:01;;;;;;;41.85;20.58;;;;;;;7.70;80.03;92387.13;5072752;28;20050;-45
2022/04/23 05:13:28;;;;;;;37.75;21.92;;;;;;;7.51;79.89;92381.44;5071085;28;20037;-46
2022/04/23 05:15:55;;;;;;;42.40;22.87;;;;;;;6.98;82.66;92392.63;5072719;28;20044;-47
2022/04/23 05:18:22;;;;;;;37.45;20.52;;;;;;;7.48;80.98;92390.47;5072619;28;20095;-50
2022/04/23 05:20:49;;;;;;;37.95;20.73;;;;;;;7.60;80.93;92397.16;5071688;28;20037;-47
2022/04/23 05:23:16;;;;;;;36.78;20.70;;;;;;;7.74;79.99;92394.00;5072440;28;20041;-50
2022/04/23 05:25:43;;;;;;;35.40;19.55;;;;;;;7.78;79.29;92399.38;5072043;28;20048;-48
2022/04/23 05:28:10;;;;;;;36.97;20.20;;;;;;;7.69;79.77;92402.00;5072171;28;20040;-48
2022/04/23 05:30:37;;;;;;;36.17;19.90;;;;;;;7.73;79.25;92384.31;5071769;28;20110;-48
2022/04/23 05:33:05;;;;;;;35.63;19.92;;;;;;;7.80;79.38;92388.78;5072191;28;20074;-45
2022/04/23 05:35:33;;;;;;;36.25;20.05;;;;;;;8.00;78.51;92396.78;5071518;28;20057;-49
2022/04/23 05:38:00;;;;;;;35.65;19.50;;;;;;;8.14;77.93;92395.59;5072077;28;20386;-46
2022/04/23 05:40:27;;;;;;;38.07;20.60;;;;;;;8.04;78.76;92405.63;5072020;28;20036;-46
2022/04/23 05:42:59;;;;;;;40.17;20.83;;;;;;;7.89;79.35;92396.34;5071285;28;20975;-49
2022/04/23 05:45:28;;;;;;;37.22;19.73;;;;;;;7.74;79.95;92404.94;5071895;28;20138;-51
2022/04/23 05:47:55;;;;;;;35.70;19.60;;;;;;;7.95;79.58;92398.09;5070154;28;20049;-50
2022/04/23 05:50:22;;;;;;;36.45;20.15;;;;;;;8.09;78.77;92405.09;5071529;28;20045;-52
2022/04/23 05:52:49;;;;;;;34.10;19.00;;;;;;;8.19;78.02;92404.00;5071252;28;20044;-49
2022/04/23 05:55:16;;;;;;;35.42;19.15;;;;;;;8.36;77.97;92406.63;5071783;28;20044;-50
2022/04/23 05:57:43;;;;;;;36.97;20.13;;;;;;;8.45;77.37;92405.97;5071213;28;20051;-46
2022/04/23 06:00:11;;;;;;;35.85;19.50;;;;;;;8.39;76.93;92405.72;5071595;28;20078;-47
2022/04/23 06:02:38;;;;;;;34.70;18.60;;;;;;;8.36;76.84;92401.91;5071013;28;20037;-48
2022/04/23 06:05:06;;;;;;;36.80;20.37;;;;;;;8.14;78.07;92406.53;5071671;28;20050;-47
2022/04/23 06:07:33;;;;;;;37.05;19.45;;;;;;;8.39;77.37;92411.19;5070753;28;20067;-51
2022/04/23 06:10:01;;;;;;;34.25;19.15;;;;;;;8.71;75.67;92403.97;5066417;28;20052;-45
2022/04/23 06:12:27;;;;;;;34.33;18.80;;;;;;;8.27;77.15;92409.25;5062183;28;20044;-46
2022/04/23 06:14:54;;;;;;;32.95;19.02;;;;;;;8.26;77.03;92413.94;5071357;28;20373;-50
2022/04/23 06:17:25;;;;;;;32.77;18.63;;;;;;;8.52;76.68;92425.66;5071250;28;20052;-46
2022/04/23 06:19:53;;;;;;;32.63;18.23;;;;;;;8.44;76.90;92429.06;5070030;28;20048;-46
2022/04/23 06:22:20;;;;;;;34.95;18.85;;;;;;;8.56;76.71;92423.59;5071340;28;20047;-46
2022/04/23 06:24:46;;;;;;;31.58;17.55;;;;;;;8.79;74.58;92421.69;5070744;28;20052;-50
2022/04/23 06:27:13;;;;;;;31.70;18.33;;;;;;;8.64;76.14;92428.84;5070974;28;20420;-54
2022/04/23 06:29:41;;;;;;;36.93;22.07;;;;;;;8.94;74.55;92422.75;5070234;28;20049;-51
2022/04/23 06:32:11;;;;;;;32.67;18.67;;;;;;;8.96;74.47;92419.59;5070714;28;20512;-53
2022/04/23 06:34:38;;;;;;;32.55;18.75;;;;;;;8.93;74.14;92420.47;5070332;28;20048;-48
2022/04/23 06:37:06;;;;;;;31.17;17.05;;;;;;;8.98;73.97;92428.13;5070745;28;20044;-49
2022/04/23 06:39:33;;;;;;;31.77;17.98;;;;;;;8.93;74.54;92431.41;5070679;28;20047;-48
2022/04/23 06:42:00;;;;;;;33.70;18.90;;;;;;;9.15;73.60;92432.22;5070745;28;20047;-47
2022/04/23 06:44:27;;;;;;;32.85;18.52;;;;;;;9.14;73.25;92438.91;5070781;28;20048;-50
2022/04/23 06:46:54;;;;;;;29.65;17.23;;;;;;;9.10;74.08;92430.06;5076926;28;20619;-44
2022/04/23 06:49:21;;;;;;;32.45;17.85;;;;;;;9.11;73.62;92428.84;5070336;28;20051;-47
2022/04/23 06:51:48;;;;;;;34.10;17.90;;;;;;;9.15;72.96;92434.94;5068953;28;20045;-51
2022/04/23 06:54:15;;;;;;;35.53;20.43;;;;;;;8.40;75.82;92445.56;5070849;28;20049;-49
2022/04/23 06:56:41;;;;;;;30.75;17.40;;;;;;;8.16;76.78;92434.16;5052223;28;20059;-53
2022/04/23 06:59:08;;;;;;;31.83;18.52;;;;;;;7.96;77.86;92442.56;5068376;28;20036;-47
2022/04/23 07:01:36;;;;;;;30.50;17.45;;;;;;;8.38;76.75;92442.50;5069723;28;20048;-45
2022/04/23 07:04:03;;;;;;;34.92;18.73;;;;;;;8.58;76.06;92445.03;5070342;28;20048;-45
2022/04/23 07:06:30;;;;;;;30.77;17.37;;;;;;;8.76;75.73;92447.19;5070033;28;20048;-52
2022/04/23 07:08:56;;;;;;;32.05;17.95;;;;;;;8.89;75.40;92447.16;5089314;28;20048;-50
2022/04/23 07:11:23;;;;;;;30.52;18.40;;;;;;;8.27;76.36;92445.56;5090578;28;20048;-49
2022/04/23 07:13:50;;;;;;;34.40;18.98;;;;;;;7.74;78.58;92450.59;5090266;28;20100;-51
2022/04/23 07:16:17;;;;;;;33.45;18.15;;;;;;;7.76;79.12;92451.69;5090528;28;20502;-44
2022/04/23 07:18:44;;;;;;;29.60;17.33;;;;;;;7.88;77.68;92452.16;5089963;28;20047;-46
2022/04/23 07:21:10;;;;;;;30.50;16.75;;;;;;;7.58;79.53;92452.19;5085425;28;20048;-51
2022/04/23 07:26:23;;;;;;;34.17;18.23;;;;;;;7.40;80.39;92460.09;5070336;28;20054;-53
2022/04/23 07:28:49;;;;;;;30.25;16.35;;;;;;;7.88;77.56;92469.31;5078955;28;20047;-45
2022/04/23 07:31:16;;;;;;;29.33;16.13;;;;;;;8.28;75.68;92454.50;5090164;28;20400;-47
2022/04/23 07:39:14;;;;;;;27.50;15.43;;;;;;;8.95;73.44;92461.81;5090216;28;20047;-53
2022/04/23 07:41:41;;;;;;;27.55;15.65;;;;;;;8.48;74.82;92457.06;5088585;28;20040;-49
2022/04/23 07:44:07;;;;;;;27.93;15.50;;;;;;;8.17;75.95;92450.13;5090088;28;20416;-46
2022/04/23 07:46:34;;;;;;;26.67;15.48;;;;;;;8.73;74.84;92453.53;5089728;28;20477;-46
2022/04/23 07:49:01;;;;;;;28.38;16.05;;;;;;;9.34;72.59;92451.56;5090091;28;20078;-49
2022/04/23 07:51:28;;;;;;;28.35;18.02;;;;;;;8.20;74.06;92459.41;5089692;28;20040;-50
2022/04/23 07:54:01;;;;;;;28.17;15.43;;;;;;;8.91;73.13;92451.00;5090374;28;20484;-46
2022/04/23 07:56:28;;;;;;;26.50;15.37;;;;;;;9.43;71.37;92448.88;5089359;28;20052;-51
2022/04/23 07:58:55;;;;;;;23.45;14.15;;;;;;;10.00;69.24;92446.84;5089779;28;20074;-51
2022/04/23 08:01:22;;;;;;;25.67;14.68;;;;;;;9.54;70.78;92443.81;5089764;28;20066;-45
2022/04/23 08:03:49;;;;;;;25.08;14.85;;;;;;;10.13;68.36;92443.28;5089574;28;20036;-49
2022/04/23 08:06:16;;;;;;;26.23;15.10;;;;;;;10.26;68.39;92443.19;5089991;28;20048;-49
2022/04/23 08:08:43;;;;;;;26.47;14.93;;;;;;;10.18;67.88;92437.97;5072359;28;20044;-48
2022/04/23 08:11:10;;;;;;;25.60;15.60;;;;;;;9.57;69.68;92440.16;5072555;28;20041;-50
2022/04/23 08:13:37;;;;;;;25.67;15.00;;;;;;;9.84;68.59;92444.31;5072920;28;20059;-48
2022/04/23 08:16:05;;;;;;;24.90;14.60;;;;;;;10.23;67.86;92430.38;5073696;28;20066;-51
2022/04/23 08:18:32;;;;;;;22.77;13.98;;;;;;;10.56;66.33;92444.41;5073193;28;20075;-50
2022/04/23 08:20:58;;;;;;;25.87;13.97;;;;;;;10.87;65.35;92435.38;5072414;28;20051;-52
2022/04/23 08:23:25;;;;;;;24.73;14.82;;;;;;;11.05;64.83;92448.38;5058902;28;20409;-48
2022/04/23 08:25:55;;;;;;;24.15;14.63;;;;;;;11.12;63.46;92459.06;5052850;28;20467;-47
2022/04/23 08:31:08;;;;;;;23.83;14.35;;;;;;;9.48;69.09;92453.03;5091869;28;20783;-46
2022/04/23 08:36:21;;;;;;;22.75;13.38;;;;;;;9.08;70.46;92464.56;5093531;28;20276;-53
2022/04/23 08:38:48;;;;;;;25.02;14.10;;;;;;;8.83;71.97;92463.38;5092821;28;20054;-46
2022/04/23 08:41:15;;;;;;;23.80;13.55;;;;;;;9.06;70.50;92469.69;5092189;28;20606;-49
2022/04/23 08:43:42;;;;;;;24.52;13.98;;;;;;;8.64;72.31;92473.34;5093144;28;20051;-49
2022/04/23 08:46:09;;;;;;;27.10;15.77;;;;;;;7.98;75.12;92476.44;5093374;28;20044;-50
2022/04/23 08:48:41;;;;;;;24.27;13.82;;;;;;;8.54;73.18;92474.44;5092557;28;20051;-49
2022/04/23 08:51:17;;;;;;;24.02;13.95;;;;;;;8.68;72.84;92478.72;5091747;28;20048;-50
2022/04/23 08:53:46;;;;;;;26.60;15.05;;;;;;;8.98;71.74;92471.91;5092792;28;20052;-46
2022/04/23 08:56:13;;;;;;;27.05;15.82;;;;;;;8.03;74.27;92468.91;5093263;28;20480;-49
2022/04/23 08:58:40;;;;;;;26.63;15.73;;;;;;;7.47;76.97;92475.53;5091292;28;20040;-49
2022/04/23 09:01:06;;;;;;;24.33;13.07;;;;;;;8.15;74.43;92468.19;5091686;28;20047;-48
2022/04/23 09:03:33;;;;;;;25.67;14.95;;;;;;;8.15;74.58;92473.66;5092497;28;20055;-47
2022/04/23 09:06:00;;;;;;;25.75;13.90;;;;;;;8.57;73.06;92457.16;5092973;28;20531;-49
2022/04/23 09:08:29;;;;;;;25.30;14.77;;;;;;;8.47;72.92;92458.25;5078111;28;20044;-46
2022/04/23 09:10:56;;;;;;;25.47;14.13;;;;;;;8.87;71.90;92460.53;5071622;28;20782;-46
2022/04/23 09:13:26;;;;;;;25.58;15.52;;;;;;;8.59;72.54;92455.53;5088724;28;20094;-51
2022/04/23 09:24:18;;;;;;;25.50;14.47;;;;;;;8.54;73.48;92458.03;5057625;28;20097;-49
2022/04/23 09:27:03;;;;;;;22.98;13.68;;;;;;;9.17;71.36;92456.41;5072053;28;20523;-48
2022/04/23 09:29:30;;;;;;;23.95;14.18;;;;;;;9.90;69.31;92456.25;5071846;28;20037;-50
2022/04/23 09:32:14;;;;;;;23.75;14.00;;;;;;;9.82;67.94;92457.72;5072118;28;20040;-51
2022/04/23 09:34:41;;;;;;;25.10;14.73;;;;;;;9.70;68.33;92461.25;5071378;28;20047;-46
2022/04/23 09:37:11;;;;;;;21.47;13.30;;;;;;;9.49;69.41;92454.56;5070721;28;20067;-46
2022/04/23 09:39:40;;;;;;;23.60;12.82;;;;;;;10.30;66.75;92460.28;5071763;28;20489;-45
2022/04/23 09:42:14;;;;;;;27.50;13.85;;;;;;;10.64;65.35;92462.09;5072121;28;20041;-46
2022/04/23 09:44:42;;;;;;;26.40;13.18;;;;;;;10.75;65.05;92459.72;5071601;28;20409;-49
2022/04/23 09:47:09;;;;;;;21.58;13.18;;;;;;;11.07;63.52;92463.16;5072006;28;20106;-46
2022/04/23 09:49:38;;;;;;;23.27;13.37;;;;;;;11.49;62.92;92459.09;5069828;28;20048;-49
2022/04/23 09:52:08;;;;;;;20.65;13.00;;;;;;;11.19;63.04;92448.56;5071920;28;20044;-48
2022/04/23 09:54:37;;;;;;;23.48;14.30;;;;;;;10.05;66.79;92444.75;5071368;28;20405;-53
2022/04/23 09:57:04;;;;;;;23.27;13.90;;;;;;;10.12;67.77;92449.94;5070451;28;20044;-50
2022/04/23 09:59:31;;;;;;;22.83;14.10;;;;;;;10.42;66.24;92436.72;5071356;28;20478;-48
2022/04/23 10:01:58;;;;;;;24.33;16.13;;;;;;;9.40;68.83;92438.81;5071572;28;20051;-49
2022/04/23 10:04:31;;;;;;;24.08;15.43;;;;;;;8.92;71.29;92438.09;5071965;28;20089;-46
2022/04/23 10:07:01;;;;;;;24.92;15.73;;;;;;;9.45;70.14;92432.78;5080708;28;20075;-51
2022/04/23 10:09:35;;;;;;;23.00;13.90;;;;;;;10.45;66.46;92425.63;5091401;28;20074;-46
2022/04/23 10:12:06;;;;;;;24.35;14.30;;;;;;;9.68;68.36;92423.38;5090594;28;20044;-50
2022/04/23 10:14:46;;;;;;;22.30;13.90;;;;;;;10.24;66.75;92410.75;5089939;28;20050;-51
2022/04/23 10:17:17;;;;;;;23.85;14.32;;;;;;;10.13;67.25;92413.88;5091705;28;20052;-47
2022/04/23 10:19:44;;;;;;;22.35;14.02;;;;;;;9.70;69.20;92401.78;5090998;28;20487;-45
2022/04/23 10:22:25;;;;;;;22.73;13.75;;;;;;;10.23;67.88;92397.47;5091773;28;20052;-46
2022/04/23 10:25:10;;;;;;;21.55;13.38;;;;;;;11.10;64.97;92390.88;5089712;28;20412;-52
2022/04/23 10:27:37;;;;;;;21.80;13.70;;;;;;;11.63;63.66;92389.81;5090871;28;20066;-46
2022/04/23 10:30:06;;;;;;;22.98;14.45;;;;;;;10.96;64.48;92388.72;5071736;28;20059;-47
2022/04/23 10:32:40;;;;;;;24.10;14.88;;;;;;;10.48;67.68;92382.81;5070456;28;20049;-50
2022/04/23 10:35:19;;;;;;;21.73;14.07;;;;;;;11.48;63.63;92370.44;5071162;28;20385;-48
2022/04/23 10:37:53;;;;;;;22.75;14.50;;;;;;;11.00;65.09;92381.09;5069524;28;20053;-48
2022/04/23 10:40:21;;;;;;;20.87;13.20;;;;;;;12.35;61.38;92398.41;5069802;28;20044;-55
2022/04/23 10:43:12;;;;;;;21.23;12.95;;;;;;;14.06;56.14;92404.16;5070400;28;20050;-49
2022/04/23 10:45:40;;;;;;;19.13;12.85;;;;;;;14.57;54.12;92416.06;5070160;28;20041;-54
2022/04/23 10:48:19;;;;;;;19.52;13.23;;;;;;;14.30;54.19;92423.38;5070792;28;20185;-50
2022/04/23 10:51:11;;;;;;;19.13;13.10;;;;;;;14.41;54.89;92420.06;5070039;28;20048;-53
2022/04/23 10:53:37;;;;;;;18.17;12.93;;;;;;;14.67;53.93;92424.97;5061253;28;20071;-46
2022/04/23 10:56:06;;;;;;;19.27;13.38;;;;;;;13.28;56.47;92434.47;5070634;28;20512;-49
2022/04/23 10:58:33;;;;;;;20.85;14.02;;;;;;;11.88;61.13;92423.69;5069987;28;20041;-49
2022/04/23 11:01:22;;;;;;;20.13;13.48;;;;;;;11.52;61.90;92441.72;5070424;28;20048;-47
2022/04/23 11:03:55;;;;;;;21.05;13.82;;;;;;;11.22;63.51;92448.84;5069673;28;21278;-48
2022/04/23 11:12:55;;;;;;;24.13;15.90;;;;;;;11.03;64.47;92435.09;5069891;28;20052;-49
2022/04/23 11:15:22;;;;;;;23.88;15.15;;;;;;;11.35;63.15;92439.25;5070384;28;20036;-50
2022/04/23 11:17:53;;;;;;;22.50;14.57;;;;;;;11.12;63.79;92439.84;5069815;28;20036;-51
2022/04/23 11:20:28;;;;;;;28.37;15.40;;;;;;;11.52;63.02;92433.47;5070058;28;20053;-45
2022/04/23 11:22:56;;;;;;;23.60;14.25;;;;;;;11.20;63.19;92450.06;5069584;28;20288;-52
2022/04/23 11:25:23;;;;;;;22.50;14.55;;;;;;;11.05;63.74;92446.38;5070202;28;20040;-50
2022/04/23 11:27:50;;;;;;;25.42;16.30;;;;;;;10.85;64.66;92455.03;5069680;28;20049;-53
2022/04/23 11:30:29;;;;;;;26.33;16.00;;;;;;;10.63;65.28;92452.38;5070139;28;20048;-51
2022/04/23 11:33:09;;;;;;;23.87;15.33;;;;;;;10.40;66.29;92453.63;5069131;28;21650;-51
2022/04/23 11:35:36;;;;;;;24.63;14.68;;;;;;;10.13;67.13;92446.78;5069649;28;20059;-47
2022/04/23 11:38:03;;;;;;;24.60;15.02;;;;;;;9.90;68.04;92449.97;5070040;28;20519;-49
2022/04/23 11:40:34;;;;;;;24.13;13.95;;;;;;;10.14;67.12;92447.53;5069900;28;20051;-45
2022/04/23 11:43:00;;;;;;;23.67;14.45;;;;;;;10.62;65.78;92448.09;5070205;28;20044;-49
2022/04/23 11:45:27;;;;;;;24.10;13.50;;;;;;;11.12;64.28;92448.06;5069526;28;20051;-46
2022/04/23 11:47:54;;;;;;;23.20;14.10;;;;;;;11.15;63.53;92449.91;5069166;28;20668;-50
2022/04/23 11:50:22;;;;;;;21.60;13.52;;;;;;;11.24;63.23;92444.44;5069820;28;20438;-46
2022/04/23 11:53:06;;;;;;;22.83;14.48;;;;;;;11.54;62.07;92445.53;5069592;28;20516;-47
2022/04/23 11:55:32;;;;;;;21.13;13.48;;;;;;;11.47;62.48;92448.59;5069593;28;20417;-51
2022/04/23 11:58:01;;;;;;;21.33;13.80;;;;;;;11.24;63.17;92444.44;5068781;28;20428;-48
2022/04/23 12:00:32;;;;;;;21.23;13.48;;;;;;;11.03;63.27;92453.53;5069522;28;20049;-50